sensor_id;sensor_type;location;lat;lon;timestamp;pressure;altitude;pressure_sealevel;temperature;humidity
3082;BME280;1551;51.046;7.010;2023-08-08T00:00:29;100869.97;;;16.80;71.58
3082;BME280;1551;51.046;7.010;2023-08-08T00:03:18;100873.63;;;16.73;71.84
3082;BME280;1551;51.046;7.010;2023-08-08T00:06:07;100864.19;;;16.72;72.27
3082;BME280;1551;51.046;7.010;2023-08-08T00:08:56;100866.88;;;16.69;72.36
3082;BME280;1551;51.046;7.010;2023-08-08T00:11:45;100864.47;;;16.63;72.26
3082;BME280;1551;51.046;7.010;2023-08-08T00:14:34;100858.66;;;16.56;72.45
3082;BME280;1551;51.046;7.010;2023-08-08T00:17:23;100863.22;;;16.48;72.25
3082;BME280;1551;51.046;7.010;2023-08-08T00:20:12;100854.69;;;16.44;72.72
3082;BME280;1551;51.046;7.010;2023-08-08T00:23:01;100857.50;;;16.37;72.77
3082;BME280;1551;51.046;7.010;2023-08-08T00:25:50;100854.34;;;16.29;72.90
3082;BME280;1551;51.046;7.010;2023-08-08T00:28:39;100851.00;;;16.25;73.35
3082;BME280;1551;51.046;7.010;2023-08-08T00:31:30;100848.63;;;16.18;73.54
3082;BME280;1551;51.046;7.010;2023-08-08T00:34:19;100843.59;;;16.15;73.88
3082;BME280;1551;51.046;7.010;2023-08-08T00:37:08;100840.34;;;16.08;73.59
3082;BME280;1551;51.046;7.010;2023-08-08T00:39:57;100851.41;;;16.12;74.13
3082;BME280;1551;51.046;7.010;2023-08-08T00:42:46;100847.19;;;16.09;74.18
3082;BME280;1551;51.046;7.010;2023-08-08T00:45:36;100839.59;;;16.05;73.92
3082;BME280;1551;51.046;7.010;2023-08-08T00:48:25;100844.00;;;16.01;74.22
3082;BME280;1551;51.046;7.010;2023-08-08T00:51:16;100844.88;;;16.00;74.02
3082;BME280;1551;51.046;7.010;2023-08-08T00:54:06;100842.44;;;15.96;74.16
3082;BME280;1551;51.046;7.010;2023-08-08T00:56:57;100834.41;;;16.05;74.39
3082;BME280;1551;51.046;7.010;2023-08-08T00:59:46;100824.44;;;15.93;74.25
3082;BME280;1551;51.046;7.010;2023-08-08T01:02:35;100843.28;;;15.96;74.38
3082;BME280;1551;51.046;7.010;2023-08-08T01:05:25;100845.16;;;15.91;74.65
3082;BME280;1551;51.046;7.010;2023-08-08T01:08:22;100845.03;;;15.96;74.64
3082;BME280;1551;51.046;7.010;2023-08-08T01:11:16;100845.03;;;15.96;74.98
3082;BME280;1551;51.046;7.010;2023-08-08T01:14:07;100847.53;;;15.99;74.83
3082;BME280;1551;51.046;7.010;2023-08-08T01:16:58;100844.03;;;16.00;74.67
3082;BME280;1551;51.046;7.010;2023-08-08T01:19:49;100836.25;;;16.01;75.01
3082;BME280;1551;51.046;7.010;2023-08-08T01:22:45;100849.63;;;16.14;74.43
3082;BME280;1551;51.046;7.010;2023-08-08T01:25:39;100850.28;;;16.20;74.52
3082;BME280;1551;51.046;7.010;2023-08-08T01:28:29;100845.88;;;16.24;74.45
3082;BME280;1551;51.046;7.010;2023-08-08T01:31:17;100833.81;;;16.24;74.06
3082;BME280;1551;51.046;7.010;2023-08-08T01:34:07;100839.63;;;16.31;73.91
3082;BME280;1551;51.046;7.010;2023-08-08T01:37:17;100841.28;;;16.33;73.79
3082;BME280;1551;51.046;7.010;2023-08-08T01:40:08;100831.88;;;16.31;73.91
3082;BME280;1551;51.046;7.010;2023-08-08T01:42:58;100820.84;;;16.26;73.64
3082;BME280;1551;51.046;7.010;2023-08-08T01:45:48;100831.81;;;16.32;73.62
3082;BME280;1551;51.046;7.010;2023-08-08T01:48:37;100823.28;;;16.30;73.33
3082;BME280;1551;51.046;7.010;2023-08-08T01:51:26;100822.78;;;16.19;73.50
3082;BME280;1551;51.046;7.010;2023-08-08T01:54:16;100827.00;;;16.22;74.05
3082;BME280;1551;51.046;7.010;2023-08-08T01:57:05;100802.69;;;16.01;73.69
3082;BME280;1551;51.046;7.010;2023-08-08T01:59:54;100826.31;;;16.15;74.31
3082;BME280;1551;51.046;7.010;2023-08-08T02:02:43;100830.03;;;16.07;74.20
3082;BME280;1551;51.046;7.010;2023-08-08T02:05:32;100827.28;;;16.13;74.33
3082;BME280;1551;51.046;7.010;2023-08-08T02:08:21;100832.41;;;16.14;74.39
3082;BME280;1551;51.046;7.010;2023-08-08T02:11:10;100827.25;;;16.14;74.69
3082;BME280;1551;51.046;7.010;2023-08-08T02:13:59;100824.94;;;16.05;75.02
3082;BME280;1551;51.046;7.010;2023-08-08T02:16:48;100821.56;;;16.03;74.77
3082;BME280;1551;51.046;7.010;2023-08-08T02:19:37;100798.84;;;15.87;75.03
3082;BME280;1551;51.046;7.010;2023-08-08T02:22:26;100807.69;;;15.78;75.60
3082;BME280;1551;51.046;7.010;2023-08-08T02:25:15;100795.81;;;15.72;75.91
3082;BME280;1551;51.046;7.010;2023-08-08T02:28:04;100795.16;;;15.66;75.84
3082;BME280;1551;51.046;7.010;2023-08-08T02:30:53;100791.00;;;15.60;76.31
3082;BME280;1551;51.046;7.010;2023-08-08T02:33:43;100785.06;;;15.58;76.42
3082;BME280;1551;51.046;7.010;2023-08-08T02:36:31;100774.81;;;15.55;76.64
3082;BME280;1551;51.046;7.010;2023-08-08T02:39:21;100785.63;;;15.68;76.66
3082;BME280;1551;51.046;7.010;2023-08-08T02:42:11;100783.06;;;15.68;76.59
3082;BME280;1551;51.046;7.010;2023-08-08T02:45:00;100782.16;;;15.69;76.28
3082;BME280;1551;51.046;7.010;2023-08-08T02:47:49;100782.28;;;15.64;76.97
3082;BME280;1551;51.046;7.010;2023-08-08T02:50:37;100778.06;;;15.62;76.80
3082;BME280;1551;51.046;7.010;2023-08-08T02:53:26;100777.34;;;15.57;76.90
3082;BME280;1551;51.046;7.010;2023-08-08T02:56:16;100753.66;;;15.43;76.77
3082;BME280;1551;51.046;7.010;2023-08-08T02:59:05;100780.91;;;15.53;77.42
3082;BME280;1551;51.046;7.010;2023-08-08T03:01:55;100781.88;;;15.49;77.47
3082;BME280;1551;51.046;7.010;2023-08-08T03:04:44;100770.22;;;15.34;76.82
3082;BME280;1551;51.046;7.010;2023-08-08T03:07:34;100771.03;;;15.36;77.73
3082;BME280;1551;51.046;7.010;2023-08-08T03:10:24;100763.50;;;15.29;77.54
3082;BME280;1551;51.046;7.010;2023-08-08T03:13:13;100762.75;;;15.25;78.21
3082;BME280;1551;51.046;7.010;2023-08-08T03:16:04;100763.81;;;15.18;77.94
3082;BME280;1551;51.046;7.010;2023-08-08T03:18:55;100764.69;;;15.17;78.25
3082;BME280;1551;51.046;7.010;2023-08-08T03:21:45;100767.31;;;15.15;78.32
3082;BME280;1551;51.046;7.010;2023-08-08T03:24:34;100757.13;;;15.11;78.47
3082;BME280;1551;51.046;7.010;2023-08-08T03:27:23;100756.34;;;15.09;78.97
3082;BME280;1551;51.046;7.010;2023-08-08T03:30:15;100756.16;;;15.15;79.13
3082;BME280;1551;51.046;7.010;2023-08-08T03:33:06;100761.38;;;15.13;78.77
3082;BME280;1551;51.046;7.010;2023-08-08T03:35:54;100765.66;;;15.13;79.03
3082;BME280;1551;51.046;7.010;2023-08-08T03:38:43;100758.00;;;15.10;79.02
3082;BME280;1551;51.046;7.010;2023-08-08T03:41:34;100764.69;;;15.17;79.62
3082;BME280;1551;51.046;7.010;2023-08-08T03:44:24;100767.19;;;15.20;79.36
3082;BME280;1551;51.046;7.010;2023-08-08T03:47:13;100756.75;;;15.25;78.86
3082;BME280;1551;51.046;7.010;2023-08-08T03:50:02;100756.50;;;15.34;78.73
3082;BME280;1551;51.046;7.010;2023-08-08T03:52:52;100755.66;;;15.33;78.99
3082;BME280;1551;51.046;7.010;2023-08-08T03:55:42;100758.00;;;15.41;78.92
3082;BME280;1551;51.046;7.010;2023-08-08T03:58:31;100762.28;;;15.42;78.65
3082;BME280;1551;51.046;7.010;2023-08-08T04:01:21;100762.50;;;15.34;79.30
3082;BME280;1551;51.046;7.010;2023-08-08T04:04:09;100765.78;;;15.39;79.18
3082;BME280;1551;51.046;7.010;2023-08-08T04:06:59;100771.72;;;15.44;79.17
3082;BME280;1551;51.046;7.010;2023-08-08T04:09:47;100769.16;;;15.41;79.26
3082;BME280;1551;51.046;7.010;2023-08-08T04:12:36;100758.06;;;15.39;79.41
3082;BME280;1551;51.046;7.010;2023-08-08T04:15:25;100778.50;;;15.47;79.54
3082;BME280;1551;51.046;7.010;2023-08-08T04:18:14;100783.56;;;15.50;78.94
3082;BME280;1551;51.046;7.010;2023-08-08T04:21:03;100774.22;;;15.47;79.47
3082;BME280;1551;51.046;7.010;2023-08-08T04:23:52;100772.94;;;15.60;79.63
3082;BME280;1551;51.046;7.010;2023-08-08T04:26:41;100776.09;;;15.70;79.75
3082;BME280;1551;51.046;7.010;2023-08-08T04:29:30;100774.19;;;15.76;79.61
3082;BME280;1551;51.046;7.010;2023-08-08T04:32:19;100768.16;;;15.77;79.62
3082;BME280;1551;51.046;7.010;2023-08-08T04:35:08;100753.69;;;15.72;79.70
3082;BME280;1551;51.046;7.010;2023-08-08T04:37:57;100766.88;;;15.61;79.27
3082;BME280;1551;51.046;7.010;2023-08-08T04:40:46;100766.34;;;15.52;80.15
3082;BME280;1551;51.046;7.010;2023-08-08T04:43:35;100768.78;;;15.56;80.50
3082;BME280;1551;51.046;7.010;2023-08-08T04:46:25;100767.00;;;15.58;80.91
3082;BME280;1551;51.046;7.010;2023-08-08T04:49:13;100770.44;;;15.59;81.08
3082;BME280;1551;51.046;7.010;2023-08-08T04:52:03;100764.00;;;15.72;80.77
3082;BME280;1551;51.046;7.010;2023-08-08T04:54:52;100758.97;;;15.67;80.87
3082;BME280;1551;51.046;7.010;2023-08-08T04:57:41;100767.44;;;15.72;80.79
3082;BME280;1551;51.046;7.010;2023-08-08T05:00:30;100764.31;;;15.61;80.75
3082;BME280;1551;51.046;7.010;2023-08-08T05:03:19;100763.34;;;15.65;80.83
3082;BME280;1551;51.046;7.010;2023-08-08T05:06:08;100752.97;;;15.67;81.19
3082;BME280;1551;51.046;7.010;2023-08-08T05:08:57;100758.78;;;15.73;81.28
3082;BME280;1551;51.046;7.010;2023-08-08T05:11:46;100747.72;;;15.70;81.70
3082;BME280;1551;51.046;7.010;2023-08-08T05:14:35;100745.84;;;15.75;81.31
3082;BME280;1551;51.046;7.010;2023-08-08T05:17:24;100754.38;;;15.77;81.69
3082;BME280;1551;51.046;7.010;2023-08-08T05:20:13;100744.78;;;15.82;81.71
3082;BME280;1551;51.046;7.010;2023-08-08T05:23:02;100744.50;;;15.90;81.84
3082;BME280;1551;51.046;7.010;2023-08-08T05:25:52;100730.09;;;15.84;81.11
3082;BME280;1551;51.046;7.010;2023-08-08T05:28:41;100735.94;;;15.89;81.19
3082;BME280;1551;51.046;7.010;2023-08-08T05:31:30;100741.66;;;15.99;81.55
3082;BME280;1551;51.046;7.010;2023-08-08T05:34:19;100741.47;;;16.05;81.02
3082;BME280;1551;51.046;7.010;2023-08-08T05:37:08;100745.19;;;15.96;81.46
3082;BME280;1551;51.046;7.010;2023-08-08T05:39:57;100747.09;;;15.90;81.30
3082;BME280;1551;51.046;7.010;2023-08-08T05:42:46;100747.78;;;15.96;82.09
3082;BME280;1551;51.046;7.010;2023-08-08T05:45:35;100736.16;;;16.09;81.75
3082;BME280;1551;51.046;7.010;2023-08-08T05:48:23;100742.66;;;16.21;81.71
3082;BME280;1551;51.046;7.010;2023-08-08T05:51:12;100734.75;;;16.25;81.44
3082;BME280;1551;51.046;7.010;2023-08-08T05:54:01;100742.56;;;16.24;81.05
3082;BME280;1551;51.046;7.010;2023-08-08T05:56:51;100743.59;;;16.18;81.44
3082;BME280;1551;51.046;7.010;2023-08-08T05:59:41;100746.81;;;16.25;81.34
3082;BME280;1551;51.046;7.010;2023-08-08T06:02:30;100752.75;;;16.28;81.37
3082;BME280;1551;51.046;7.010;2023-08-08T06:05:21;100758.66;;;16.32;81.20
3082;BME280;1551;51.046;7.010;2023-08-08T06:08:10;100753.53;;;16.30;81.74
3082;BME280;1551;51.046;7.010;2023-08-08T06:11:01;100770.63;;;16.34;81.40
3082;BME280;1551;51.046;7.010;2023-08-08T06:13:50;100759.72;;;16.26;81.24
3082;BME280;1551;51.046;7.010;2023-08-08T06:16:38;100757.97;;;16.27;81.90
3082;BME280;1551;51.046;7.010;2023-08-08T06:19:27;100750.88;;;16.33;81.40
3082;BME280;1551;51.046;7.010;2023-08-08T06:22:17;100768.44;;;16.48;81.19
3082;BME280;1551;51.046;7.010;2023-08-08T06:25:06;100765.72;;;16.53;81.17
3082;BME280;1551;51.046;7.010;2023-08-08T06:27:55;100773.06;;;16.65;81.08
3082;BME280;1551;51.046;7.010;2023-08-08T06:30:44;100769.63;;;16.66;80.77
3082;BME280;1551;51.046;7.010;2023-08-08T06:33:34;100775.56;;;16.68;80.67
3082;BME280;1551;51.046;7.010;2023-08-08T06:36:23;100771.72;;;16.80;79.85
3082;BME280;1551;51.046;7.010;2023-08-08T06:39:12;100774.41;;;17.01;79.76
3082;BME280;1551;51.046;7.010;2023-08-08T06:42:01;100775.25;;;17.02;78.89
3082;BME280;1551;51.046;7.010;2023-08-08T06:45:00;100779.63;;;17.00;78.88
3082;BME280;1551;51.046;7.010;2023-08-08T06:47:49;100770.28;;;16.96;78.72
3082;BME280;1551;51.046;7.010;2023-08-08T06:50:38;100774.94;;;16.86;78.61
3082;BME280;1551;51.046;7.010;2023-08-08T06:53:27;100783.78;;;16.79;78.89
3082;BME280;1551;51.046;7.010;2023-08-08T06:56:16;100781.91;;;16.84;78.70
3082;BME280;1551;51.046;7.010;2023-08-08T06:59:05;100771.06;;;16.98;78.80
3082;BME280;1551;51.046;7.010;2023-08-08T07:01:54;100785.47;;;17.05;78.65
3082;BME280;1551;51.046;7.010;2023-08-08T07:04:45;100773.56;;;17.01;78.25
3082;BME280;1551;51.046;7.010;2023-08-08T07:07:34;100774.50;;;16.98;78.28
3082;BME280;1551;51.046;7.010;2023-08-08T07:10:24;100745.47;;;16.90;78.43
3082;BME280;1551;51.046;7.010;2023-08-08T07:13:13;100771.44;;;17.12;78.38
3082;BME280;1551;51.046;7.010;2023-08-08T07:16:03;100770.16;;;17.24;77.88
3082;BME280;1551;51.046;7.010;2023-08-08T07:18:52;100761.22;;;17.32;77.94
3082;BME280;1551;51.046;7.010;2023-08-08T07:21:41;100755.03;;;17.36;77.37
3082;BME280;1551;51.046;7.010;2023-08-08T07:24:30;100763.47;;;17.18;77.16
3082;BME280;1551;51.046;7.010;2023-08-08T07:27:19;100767.13;;;17.12;77.67
3082;BME280;1551;51.046;7.010;2023-08-08T07:30:08;100769.59;;;17.15;77.76
3082;BME280;1551;51.046;7.010;2023-08-08T07:32:57;100773.84;;;17.16;78.28
3082;BME280;1551;51.046;7.010;2023-08-08T07:35:46;100769.44;;;17.20;77.80
3082;BME280;1551;51.046;7.010;2023-08-08T07:38:35;100765.81;;;17.24;77.91
3082;BME280;1551;51.046;7.010;2023-08-08T07:41:24;100749.94;;;17.35;78.00
3082;BME280;1551;51.046;7.010;2023-08-08T07:44:13;100758.13;;;17.46;77.84
3082;BME280;1551;51.046;7.010;2023-08-08T07:47:02;100758.81;;;17.51;77.04
3082;BME280;1551;51.046;7.010;2023-08-08T07:49:51;100756.22;;;17.74;76.98
3082;BME280;1551;51.046;7.010;2023-08-08T07:52:40;100760.09;;;17.85;76.14
3082;BME280;1551;51.046;7.010;2023-08-08T07:55:29;100760.94;;;17.86;75.91
3082;BME280;1551;51.046;7.010;2023-08-08T07:58:18;100750.88;;;17.78;75.37
3082;BME280;1551;51.046;7.010;2023-08-08T08:01:08;100758.03;;;17.94;75.37
3082;BME280;1551;51.046;7.010;2023-08-08T08:03:57;100760.63;;;18.15;75.02
3082;BME280;1551;51.046;7.010;2023-08-08T08:06:46;100767.47;;;18.38;74.15
3082;BME280;1551;51.046;7.010;2023-08-08T08:09:35;100761.38;;;18.61;74.19
3082;BME280;1551;51.046;7.010;2023-08-08T08:12:24;100765.13;;;18.94;72.75
3082;BME280;1551;51.046;7.010;2023-08-08T08:15:13;100763.75;;;18.85;71.96
3082;BME280;1551;51.046;7.010;2023-08-08T08:18:02;100759.44;;;18.66;71.93
3082;BME280;1551;51.046;7.010;2023-08-08T08:20:52;100750.34;;;18.76;72.47
3082;BME280;1551;51.046;7.010;2023-08-08T08:23:41;100755.44;;;18.97;71.87
3082;BME280;1551;51.046;7.010;2023-08-08T08:26:30;100742.88;;;18.88;71.89
3082;BME280;1551;51.046;7.010;2023-08-08T08:29:19;100752.22;;;18.92;71.43
3082;BME280;1551;51.046;7.010;2023-08-08T08:32:08;100752.81;;;18.59;71.55
3082;BME280;1551;51.046;7.010;2023-08-08T08:34:57;100752.63;;;18.41;72.66
3082;BME280;1551;51.046;7.010;2023-08-08T08:37:46;100742.22;;;18.83;72.61
3082;BME280;1551;51.046;7.010;2023-08-08T08:40:40;100745.31;;;18.73;72.28
3082;BME280;1551;51.046;7.010;2023-08-08T08:43:30;100767.13;;;18.47;72.21
3082;BME280;1551;51.046;7.010;2023-08-08T08:46:21;100772.09;;;18.10;73.99
3082;BME280;1551;51.046;7.010;2023-08-08T08:49:10;100762.09;;;17.56;76.73
3082;BME280;1551;51.046;7.010;2023-08-08T08:52:00;100762.53;;;17.44;79.52
3082;BME280;1551;51.046;7.010;2023-08-08T08:54:53;100767.94;;;17.61;80.92
3082;BME280;1551;51.046;7.010;2023-08-08T08:57:42;100769.09;;;17.75;81.47
3082;BME280;1551;51.046;7.010;2023-08-08T09:00:34;100769.09;;;17.75;81.90
3082;BME280;1551;51.046;7.010;2023-08-08T09:03:24;100763.06;;;17.75;82.72
3082;BME280;1551;51.046;7.010;2023-08-08T09:06:13;100760.78;;;17.67;83.81
3082;BME280;1551;51.046;7.010;2023-08-08T09:09:03;100763.44;;;17.66;83.55
3082;BME280;1551;51.046;7.010;2023-08-08T09:11:53;100756.41;;;17.46;84.65
3082;BME280;1551;51.046;7.010;2023-08-08T09:14:45;100759.75;;;17.48;84.74
3082;BME280;1551;51.046;7.010;2023-08-08T09:17:34;100762.28;;;17.50;85.11
3082;BME280;1551;51.046;7.010;2023-08-08T09:20:26;100758.22;;;17.67;85.38
3082;BME280;1551;51.046;7.010;2023-08-08T09:23:16;100758.84;;;17.72;85.52
3082;BME280;1551;51.046;7.010;2023-08-08T09:26:05;100755.56;;;17.69;85.43
3082;BME280;1551;51.046;7.010;2023-08-08T09:28:55;100764.94;;;17.71;85.83
3082;BME280;1551;51.046;7.010;2023-08-08T09:31:46;100765.56;;;17.78;86.48
3082;BME280;1551;51.046;7.010;2023-08-08T09:34:35;100760.31;;;17.79;85.61
3082;BME280;1551;51.046;7.010;2023-08-08T09:37:25;100761.22;;;17.78;86.61
3082;BME280;1551;51.046;7.010;2023-08-08T09:40:14;100764.16;;;17.69;86.68
3082;BME280;1551;51.046;7.010;2023-08-08T09:43:06;100761.00;;;17.38;87.04
3082;BME280;1551;51.046;7.010;2023-08-08T09:45:55;100764.94;;;17.25;87.69
3082;BME280;1551;51.046;7.010;2023-08-08T09:48:44;100766.16;;;17.15;88.64
3082;BME280;1551;51.046;7.010;2023-08-08T09:51:34;100767.44;;;17.03;89.18
3082;BME280;1551;51.046;7.010;2023-08-08T09:54:23;100763.91;;;17.06;89.47
3082;BME280;1551;51.046;7.010;2023-08-08T09:57:12;100763.81;;;17.09;89.91
3082;BME280;1551;51.046;7.010;2023-08-08T10:00:02;100764.28;;;17.18;90.18
3082;BME280;1551;51.046;7.010;2023-08-08T10:02:55;100761.69;;;17.43;90.08
3082;BME280;1551;51.046;7.010;2023-08-08T10:05:45;100763.31;;;17.69;89.56
3082;BME280;1551;51.046;7.010;2023-08-08T10:08:35;100770.97;;;17.94;88.83
3082;BME280;1551;51.046;7.010;2023-08-08T10:11:24;100757.50;;;18.07;88.53
3082;BME280;1551;51.046;7.010;2023-08-08T10:14:14;100759.72;;;18.16;87.75
3082;BME280;1551;51.046;7.010;2023-08-08T10:17:05;100757.31;;;18.12;87.64
3082;BME280;1551;51.046;7.010;2023-08-08T10:19:55;100750.72;;;18.25;87.15
3082;BME280;1551;51.046;7.010;2023-08-08T10:22:45;100765.59;;;18.41;85.87
3082;BME280;1551;51.046;7.010;2023-08-08T10:25:35;100771.47;;;18.67;85.81
3082;BME280;1551;51.046;7.010;2023-08-08T10:28:25;100758.63;;;18.84;84.62
3082;BME280;1551;51.046;7.010;2023-08-08T10:31:19;100756.81;;;19.06;82.66
3082;BME280;1551;51.046;7.010;2023-08-08T10:34:09;100754.56;;;19.37;80.73
3082;BME280;1551;51.046;7.010;2023-08-08T10:36:58;100760.09;;;19.48;79.71
3082;BME280;1551;51.046;7.010;2023-08-08T10:39:54;100750.47;;;19.32;77.77
3082;BME280;1551;51.046;7.010;2023-08-08T10:42:46;100764.44;;;19.09;77.07
3082;BME280;1551;51.046;7.010;2023-08-08T10:45:35;100753.78;;;18.96;76.67
3082;BME280;1551;51.046;7.010;2023-08-08T10:48:25;100750.66;;;18.88;75.67
3082;BME280;1551;51.046;7.010;2023-08-08T10:51:15;100745.69;;;18.64;75.04
3082;BME280;1551;51.046;7.010;2023-08-08T10:54:13;100760.41;;;18.63;75.35
3082;BME280;1551;51.046;7.010;2023-08-08T10:57:03;100763.22;;;18.57;75.96
3082;BME280;1551;51.046;7.010;2023-08-08T10:59:52;100762.25;;;18.60;76.40
3082;BME280;1551;51.046;7.010;2023-08-08T11:02:44;100769.28;;;18.58;76.74
3082;BME280;1551;51.046;7.010;2023-08-08T11:05:35;100764.34;;;18.51;77.16
3082;BME280;1551;51.046;7.010;2023-08-08T11:08:25;100757.28;;;18.75;77.86
3082;BME280;1551;51.046;7.010;2023-08-08T11:11:13;100755.41;;;18.99;77.39
3082;BME280;1551;51.046;7.010;2023-08-08T11:14:15;100758.06;;;19.16;76.32
3082;BME280;1551;51.046;7.010;2023-08-08T11:17:04;100746.47;;;19.25;75.06
3082;BME280;1551;51.046;7.010;2023-08-08T11:19:54;100762.16;;;19.21;74.06
3082;BME280;1551;51.046;7.010;2023-08-08T11:22:44;100756.50;;;18.93;72.44
3082;BME280;1551;51.046;7.010;2023-08-08T11:25:33;100759.94;;;18.74;71.86
3082;BME280;1551;51.046;7.010;2023-08-08T11:28:22;100761.88;;;18.69;71.22
3082;BME280;1551;51.046;7.010;2023-08-08T11:31:11;100764.09;;;18.58;70.69
3082;BME280;1551;51.046;7.010;2023-08-08T11:34:00;100752.03;;;18.57;70.66
3082;BME280;1551;51.046;7.010;2023-08-08T11:36:49;100749.72;;;18.71;70.51
3082;BME280;1551;51.046;7.010;2023-08-08T11:39:39;100746.56;;;18.83;69.95
3082;BME280;1551;51.046;7.010;2023-08-08T11:42:28;100740.00;;;18.94;69.37
3082;BME280;1551;51.046;7.010;2023-08-08T11:45:18;100743.97;;;19.03;69.89
3082;BME280;1551;51.046;7.010;2023-08-08T11:48:08;100735.25;;;19.24;69.88
3082;BME280;1551;51.046;7.010;2023-08-08T11:50:56;100733.88;;;19.15;69.25
3082;BME280;1551;51.046;7.010;2023-08-08T11:53:53;100737.84;;;19.24;69.21
3082;BME280;1551;51.046;7.010;2023-08-08T11:56:43;100723.78;;;19.28;69.09
3082;BME280;1551;51.046;7.010;2023-08-08T11:59:32;100727.13;;;19.32;68.85
3082;BME280;1551;51.046;7.010;2023-08-08T12:02:22;100717.75;;;19.28;68.63
3082;BME280;1551;51.046;7.010;2023-08-08T12:05:13;100731.28;;;19.36;68.51
3082;BME280;1551;51.046;7.010;2023-08-08T12:08:06;100726.56;;;19.44;68.60
3082;BME280;1551;51.046;7.010;2023-08-08T12:10:55;100717.34;;;19.55;68.25
3082;BME280;1551;51.046;7.010;2023-08-08T12:13:46;100717.75;;;19.48;67.38
3082;BME280;1551;51.046;7.010;2023-08-08T12:16:37;100717.31;;;19.57;67.83
3082;BME280;1551;51.046;7.010;2023-08-08T12:19:27;100714.94;;;19.52;67.74
3082;BME280;1551;51.046;7.010;2023-08-08T12:22:17;100714.22;;;19.49;68.27
3082;BME280;1551;51.046;7.010;2023-08-08T12:25:06;100721.66;;;19.56;69.51
3082;BME280;1551;51.046;7.010;2023-08-08T12:27:57;100724.13;;;19.59;70.15
3082;BME280;1551;51.046;7.010;2023-08-08T12:30:46;100730.00;;;19.44;70.84
3082;BME280;1551;51.046;7.010;2023-08-08T12:33:34;100732.09;;;19.17;71.86
3082;BME280;1551;51.046;7.010;2023-08-08T12:36:23;100737.78;;;18.87;72.71
3082;BME280;1551;51.046;7.010;2023-08-08T12:39:12;100759.56;;;18.63;74.02
3082;BME280;1551;51.046;7.010;2023-08-08T12:42:02;100763.56;;;18.28;75.24
3082;BME280;1551;51.046;7.010;2023-08-08T12:44:53;100763.88;;;18.20;76.52
3082;BME280;1551;51.046;7.010;2023-08-08T12:47:42;100765.19;;;17.87;77.40
3082;BME280;1551;51.046;7.010;2023-08-08T12:50:31;100762.94;;;17.56;79.19
3082;BME280;1551;51.046;7.010;2023-08-08T12:53:20;100758.81;;;17.51;80.22
3082;BME280;1551;51.046;7.010;2023-08-08T12:56:09;100760.81;;;17.43;81.38
3082;BME280;1551;51.046;7.010;2023-08-08T12:58:58;100771.84;;;17.25;82.41
3082;BME280;1551;51.046;7.010;2023-08-08T13:01:47;100745.13;;;17.24;83.24
3082;BME280;1551;51.046;7.010;2023-08-08T13:04:36;100750.13;;;17.29;84.24
3082;BME280;1551;51.046;7.010;2023-08-08T13:07:25;100749.00;;;17.36;84.65
3082;BME280;1551;51.046;7.010;2023-08-08T13:10:14;100748.84;;;17.40;84.87
3082;BME280;1551;51.046;7.010;2023-08-08T13:13:03;100747.97;;;17.64;85.44
3082;BME280;1551;51.046;7.010;2023-08-08T13:15:52;100751.75;;;17.77;85.12
3082;BME280;1551;51.046;7.010;2023-08-08T13:18:41;100749.72;;;17.85;84.94
3082;BME280;1551;51.046;7.010;2023-08-08T13:21:30;100752.97;;;18.12;85.03
3082;BME280;1551;51.046;7.010;2023-08-08T13:24:20;100747.16;;;18.69;83.92
3082;BME280;1551;51.046;7.010;2023-08-08T13:27:12;100744.13;;;19.39;82.38
3082;BME280;1551;51.046;7.010;2023-08-08T13:30:01;100735.31;;;20.14;80.52
3082;BME280;1551;51.046;7.010;2023-08-08T13:32:50;100744.66;;;20.87;76.56
3082;BME280;1551;51.046;7.010;2023-08-08T13:35:40;100741.63;;;20.62;74.77
3082;BME280;1551;51.046;7.010;2023-08-08T13:38:29;100735.88;;;20.38;74.28
3082;BME280;1551;51.046;7.010;2023-08-08T13:41:18;100728.50;;;20.12;74.49
3082;BME280;1551;51.046;7.010;2023-08-08T13:44:07;100733.88;;;20.09;74.34
3082;BME280;1551;51.046;7.010;2023-08-08T13:46:55;100728.41;;;19.96;74.33
3082;BME280;1551;51.046;7.010;2023-08-08T13:49:46;100730.72;;;19.83;74.52
3082;BME280;1551;51.046;7.010;2023-08-08T13:52:36;100730.91;;;19.80;74.59
3082;BME280;1551;51.046;7.010;2023-08-08T13:55:25;100734.91;;;19.69;74.82
3082;BME280;1551;51.046;7.010;2023-08-08T13:58:15;100733.72;;;19.76;75.48
3082;BME280;1551;51.046;7.010;2023-08-08T14:01:05;100736.91;;;20.00;75.21
3082;BME280;1551;51.046;7.010;2023-08-08T14:03:54;100744.16;;;20.29;74.14
3082;BME280;1551;51.046;7.010;2023-08-08T14:06:43;100728.47;;;20.30;72.73
3082;BME280;1551;51.046;7.010;2023-08-08T14:09:31;100744.69;;;20.35;70.73
3082;BME280;1551;51.046;7.010;2023-08-08T14:12:20;100743.91;;;20.33;68.30
3082;BME280;1551;51.046;7.010;2023-08-08T14:15:09;100735.09;;;20.70;66.59
3082;BME280;1551;51.046;7.010;2023-08-08T14:17:58;100733.59;;;21.16;64.59
3082;BME280;1551;51.046;7.010;2023-08-08T14:20:47;100738.31;;;20.92;63.06
3082;BME280;1551;51.046;7.010;2023-08-08T14:23:36;100742.47;;;20.45;62.08
3082;BME280;1551;51.046;7.010;2023-08-08T14:26:25;100734.53;;;20.48;61.86
3082;BME280;1551;51.046;7.010;2023-08-08T14:29:14;100736.13;;;20.68;62.06
3082;BME280;1551;51.046;7.010;2023-08-08T14:32:03;100739.03;;;20.79;61.03
3082;BME280;1551;51.046;7.010;2023-08-08T14:34:52;100735.00;;;21.54;59.65
3082;BME280;1551;51.046;7.010;2023-08-08T14:37:41;100732.81;;;21.62;57.99
3082;BME280;1551;51.046;7.010;2023-08-08T14:40:30;100727.84;;;21.58;57.40
3082;BME280;1551;51.046;7.010;2023-08-08T14:43:20;100726.59;;;21.65;57.58
3082;BME280;1551;51.046;7.010;2023-08-08T14:46:09;100726.91;;;21.28;57.69
3082;BME280;1551;51.046;7.010;2023-08-08T14:48:59;100725.34;;;21.08;58.13
3082;BME280;1551;51.046;7.010;2023-08-08T14:51:48;100736.84;;;20.87;58.34
3082;BME280;1551;51.046;7.010;2023-08-08T14:54:37;100740.00;;;20.93;59.39
3082;BME280;1551;51.046;7.010;2023-08-08T14:57:26;100738.06;;;20.97;58.68
3082;BME280;1551;51.046;7.010;2023-08-08T15:00:15;100736.41;;;21.44;58.66
3082;BME280;1551;51.046;7.010;2023-08-08T15:03:04;100743.13;;;21.48;58.10
3082;BME280;1551;51.046;7.010;2023-08-08T15:05:54;100737.06;;;21.16;58.60
3082;BME280;1551;51.046;7.010;2023-08-08T15:08:43;100742.03;;;21.21;59.07